Time;durP1;ratioP1;P1;durP2;ratioP2;P2;SDS_P1;SDS_P2;PMS_P1;PMS_P2;Temp;Humidity;BMP_temperature;BMP_pressure;BME280_temperature;BME280_humidity;BME280_pressure;Samples;Min_cycle;Max_cycle;Signal;HPM_P1;HPM_P2
2022/11/18 00:01:26;;;;;;;16.53;12.90;;;4.80;1.00;;;;;;5016697;28;20256;-76
2022/11/18 00:03:52;;;;;;;15.97;12.43;;;4.80;99.90;;;;;;5012793;28;20195;-78
2022/11/18 00:06:23;;;;;;;16.03;13.33;;;4.70;99.90;;;;;;5016047;28;20255;-77
2022/11/18 00:08:49;;;;;;;17.37;14.23;;;4.70;99.90;;;;;;5013493;28;20183;-78
2022/11/18 00:14:19;;;;;;;17.17;12.73;;;4.80;99.90;;;;;;5015878;28;20684;-78
2022/11/18 00:16:52;;;;;;;15.83;11.80;;;4.70;99.90;;;;;;5014894;28;20257;-76
2022/11/18 00:19:20;;;;;;;14.97;12.40;;;4.60;99.90;;;;;;5016474;28;20183;-78
2022/11/18 00:21:46;;;;;;;15.30;11.87;;;4.70;99.90;;;;;;5031987;28;20613;-78
2022/11/18 00:24:11;;;;;;;15.57;11.80;;;4.70;99.90;;;;;;5013567;28;20207;-81
2022/11/18 00:26:37;;;;;;;14.80;12.73;;;4.60;99.90;;;;;;5015669;28;20195;-76
2022/11/18 00:29:03;;;;;;;16.07;13.43;;;4.60;99.90;;;;;;5014531;28;20244;-78
2022/11/18 00:31:29;;;;;;;14.43;11.97;;;4.60;99.90;;;;;;5015146;28;20194;-78
2022/11/18 00:33:54;;;;;;;15.43;12.20;;;4.60;99.90;;;;;;5017070;28;20194;-79
2022/11/18 00:36:20;;;;;;;15.63;13.00;;;4.50;99.90;;;;;;5013407;28;20207;-79
2022/11/18 00:38:46;;;;;;;15.10;12.67;;;4.50;99.90;;;;;;5012743;28;20575;-78
2022/11/18 00:41:13;;;;;;;17.53;12.73;;;4.50;99.90;;;;;;5015174;28;20727;-78
2022/11/18 00:43:40;;;;;;;16.17;12.50;;;4.50;99.90;;;;;;5013764;28;20179;-78
2022/11/18 00:46:08;;;;;;;14.73;12.33;;;4.40;99.90;;;;;;5010854;28;20218;-77
2022/11/18 00:48:34;;;;;;;16.50;12.23;;;4.70;99.90;;;;;;5011303;28;20183;-79
2022/11/18 00:51:12;;;;;;;16.27;12.27;;;4.50;99.90;;;;;;5013354;28;20273;-80
2022/11/18 00:53:38;;;;;;;15.50;12.23;;;4.50;99.90;;;;;;5015192;28;20218;-78
2022/11/18 00:56:04;;;;;;;15.07;11.70;;;4.50;99.90;;;;;;5015195;28;20234;-79
2022/11/18 00:58:30;;;;;;;14.73;12.13;;;4.50;99.90;;;;;;5016863;28;20179;-79
2022/11/18 01:00:55;;;;;;;14.03;11.37;;;4.40;99.90;;;;;;5015356;28;20190;-78
2022/11/18 01:03:21;;;;;;;12.67;11.13;;;4.50;99.90;;;;;;5017568;28;20244;-78
2022/11/18 01:05:47;;;;;;;15.53;10.83;;;4.50;99.90;;;;;;5017196;28;20736;-78
2022/11/18 01:08:13;;;;;;;14.37;11.10;;;4.50;99.90;;;;;;5016929;28;20263;-78
2022/11/18 01:10:40;;;;;;;12.17;9.77;;;4.40;94.70;;;;;;5016002;28;20203;-79
2022/11/18 01:13:19;;;;;;;12.37;9.90;;;4.40;50.00;;;;;;5016368;28;20183;-79
2022/11/18 01:15:53;;;;;;;12.37;9.33;;;4.40;11.10;;;;;;5016220;28;20191;-78
2022/11/18 01:18:23;;;;;;;10.87;8.73;;;4.40;1.00;;;;;;5017545;28;20675;-78
2022/11/18 01:20:49;;;;;;;13.20;9.13;;;4.40;1.00;;;;;;5017852;28;20190;-79
2022/11/18 01:23:16;;;;;;;10.80;8.77;;;4.40;1.00;;;;;;5016570;28;20183;-78
2022/11/18 01:25:43;;;;;;;12.83;9.40;;;4.40;1.00;;;;;;5016298;28;20191;-79
2022/11/18 01:28:09;;;;;;;13.47;9.07;;;4.40;39.50;;;;;;5015491;28;20266;-78
2022/11/18 01:30:37;;;;;;;11.97;9.87;;;4.40;1.00;;;;;;5016470;28;20277;-78
2022/11/18 01:33:04;;;;;;;11.60;9.67;;;4.40;1.00;;;;;;5015090;28;20179;-78
2022/11/18 01:35:43;;;;;;;12.37;10.00;;;4.40;1.00;;;;;;5018715;28;20190;-78
2022/11/18 01:38:11;;;;;;;12.67;10.10;;;4.40;15.80;;;;;;5020782;28;20236;-78
2022/11/18 01:40:37;;;;;;;14.47;10.50;;;4.40;92.30;;;;;;5016845;28;20188;-78
2022/11/18 01:43:10;;;;;;;12.70;10.37;;;4.40;14.60;;;;;;5018787;28;20728;-78
2022/11/18 01:45:40;;;;;;;14.40;11.40;;;4.40;1.00;;;;;;5035377;28;20187;-78
2022/11/18 01:48:25;;;;;;;15.07;11.07;;;4.40;25.40;;;;;;5019678;28;20301;-78
2022/11/18 01:50:59;;;;;;;14.07;10.83;;;4.50;1.00;;;;;;5017010;28;20211;-78
2022/11/18 01:53:30;;;;;;;13.93;10.73;;;4.50;1.00;;;;;;5018904;28;20191;-79
2022/11/18 01:55:58;;;;;;;14.03;11.00;;;4.40;1.00;;;;;;5019642;28;20210;-79
2022/11/18 01:58:38;;;;;;;14.07;11.47;;;4.40;1.00;;;;;;5018641;28;20847;-78
2022/11/18 02:01:05;;;;;;;13.70;11.20;;;4.40;1.00;;;;;;5020498;28;20203;-78
2022/11/18 02:03:32;;;;;;;13.20;10.77;;;4.40;1.00;;;;;;5019927;28;20631;-78
2022/11/18 02:05:59;;;;;;;14.83;11.43;;;4.30;1.00;;;;;;5019575;28;20257;-78
2022/11/18 02:08:26;;;;;;;15.50;11.93;;;4.30;1.00;;;;;;5017981;28;20189;-78
2022/11/18 02:10:51;;;;;;;15.73;12.47;;;4.30;1.00;;;;;;5018934;28;20682;-78
2022/11/18 02:13:17;;;;;;;18.07;13.13;;;4.30;1.00;;;;;;5018462;28;20187;-79
2022/11/18 02:16:14;;;;;;;16.13;12.07;;;4.30;1.00;;;;;;5017319;28;20214;-78
2022/11/18 02:19:01;;;;;;;16.57;12.07;;;4.20;1.00;;;;;;5017374;28;20868;-79
2022/11/18 02:21:43;;;;;;;16.70;11.97;;;4.20;1.00;;;;;;5020674;28;20569;-78
2022/11/18 02:24:40;;;;;;;16.03;11.63;;;4.20;1.20;;;;;;5020551;28;20282;-78
2022/11/18 02:27:05;;;;;;;13.87;11.03;;;4.20;60.10;;;;;;5026728;28;20228;-78
2022/11/18 02:29:41;;;;;;;17.87;12.67;;;4.30;99.90;;;;;;5020037;28;20622;-78
2022/11/18 02:32:17;;;;;;;16.37;11.87;;;4.20;29.30;;;;;;5020846;28;20185;-77
2022/11/18 02:34:43;;;;;;;16.07;12.07;;;4.30;93.50;;;;;;5018798;28;20195;-79
2022/11/18 02:37:15;;;;;;;17.83;12.60;;;4.40;1.00;;;;;;5021227;28;20199;-77
2022/11/18 02:39:53;;;;;;;16.07;12.30;;;4.30;1.00;;;;;;5019527;28;20186;-78
2022/11/18 02:42:21;;;;;;;16.43;12.53;;;4.30;1.00;;;;;;5035912;28;20187;-78
2022/11/18 02:44:51;;;;;;;18.33;13.20;;;4.30;1.00;;;;;;5019996;28;20179;-78
2022/11/18 02:47:19;;;;;;;17.67;11.90;;;4.20;1.00;;;;;;5020201;28;20209;-77
2022/11/18 02:49:49;;;;;;;18.13;12.67;;;4.20;1.00;;;;;;5021633;28;20203;-77
2022/11/18 02:52:16;;;;;;;17.53;13.13;;;4.20;1.00;;;;;;5016305;28;20199;-78
2022/11/18 02:54:44;;;;;;;17.73;13.53;;;4.20;21.20;;;;;;5017819;28;20191;-77
2022/11/18 02:57:12;;;;;;;17.80;12.60;;;4.10;1.00;;;;;;5015242;28;20273;-78
2022/11/18 02:59:37;;;;;;;20.50;14.10;;;4.10;92.70;;;;;;5018380;28;20187;-78
2022/11/18 03:02:03;;;;;;;19.40;14.17;;;4.10;99.90;;;;;;5020069;28;20192;-78
2022/11/18 03:04:30;;;;;;;19.53;14.00;;;4.10;99.90;;;;;;5018423;28;20677;-78
2022/11/18 03:07:18;;;;;;;18.30;13.77;;;4.10;99.90;;;;;;5016188;28;20211;-78
2022/11/18 03:09:50;;;;;;;20.70;14.40;;;4.20;99.90;;;;;;5017720;28;20196;-79
2022/11/18 03:12:28;;;;;;;20.13;14.40;;;4.10;38.90;;;;;;5016677;28;20185;-78
2022/11/18 03:15:30;;;;;;;19.67;14.07;;;4.10;13.50;;;;;;5017695;28;20178;-78
2022/11/18 03:18:13;;;;;;;19.40;14.23;;;4.10;47.80;;;;;;5018467;28;20215;-78
2022/11/18 03:20:50;;;;;;;19.93;15.30;;;4.10;99.90;;;;;;5018240;28;20209;-78
2022/11/18 03:23:45;;;;;;;23.17;15.63;;;4.10;99.90;;;;;;5016604;28;20660;-78
2022/11/18 03:26:13;;;;;;;23.27;16.33;;;4.00;44.50;;;;;;5013063;28;20215;-77
2022/11/18 03:28:48;;;;;;;25.03;17.37;;;3.80;50.50;;;;;;5017455;28;20187;-78
2022/11/18 03:31:23;;;;;;;26.93;17.57;;;3.70;99.90;;;;;;5019353;28;20199;-78
2022/11/18 03:34:10;;;;;;;24.53;17.60;;;3.70;1.00;;;;;;5024395;28;20216;-79
2022/11/18 03:36:48;;;;;;;25.50;18.00;;;3.70;1.00;;;;;;5032735;28;20227;-78
2022/11/18 03:39:15;;;;;;;26.03;18.03;;;3.70;1.00;;;;;;5016246;28;20179;-78
2022/11/18 03:41:50;;;;;;;23.30;17.03;;;3.70;1.00;;;;;;5017416;28;20175;-78
2022/11/18 03:44:33;;;;;;;23.57;16.37;;;3.70;1.00;;;;;;5014862;28;20198;-78
2022/11/18 03:47:13;;;;;;;24.17;16.50;;;3.70;1.00;;;;;;5018451;28;20219;-78
2022/11/18 03:49:44;;;;;;;26.50;16.50;;;3.80;1.00;;;;;;5017836;28;21418;-78
2022/11/18 03:52:23;;;;;;;24.67;17.07;;;3.70;1.00;;;;;;5016107;28;20226;-78
2022/11/18 03:54:53;;;;;;;27.47;17.53;;;3.60;1.00;;;;;;5017390;28;20179;-78
2022/11/18 03:57:29;;;;;;;27.13;18.00;;;4.30;1.00;;;;;;5017240;28;20317;-77
2022/11/18 04:00:15;;;;;;;24.90;17.13;;;3.60;99.90;;;;;;5015786;28;20218;-78
2022/11/18 04:02:41;;;;;;;25.50;17.43;;;3.50;1.00;;;;;;5016737;28;20183;-78
2022/11/18 04:05:11;;;;;;;28.63;18.23;;;3.60;1.00;;;;;;5018384;28;20183;-78
2022/11/18 04:07:51;;;;;;;25.43;17.60;;;3.60;1.00;;;;;;5016565;28;20243;-78
2022/11/18 04:10:21;;;;;;;24.97;16.57;;;3.60;1.00;;;;;;5017183;28;20199;-78
2022/11/18 04:13:00;;;;;;;23.13;15.97;;;3.70;1.00;;;;;;5016743;28;20175;-78
2022/11/18 04:15:26;;;;;;;25.53;16.13;;;3.70;1.00;;;;;;5016661;28;20174;-78
2022/11/18 04:17:52;;;;;;;26.80;16.20;;;3.50;99.90;;;;;;5018484;28;20688;-78
2022/11/18 04:20:22;;;;;;;28.57;16.67;;;3.50;99.90;;;;;;5018638;28;20183;-78
2022/11/18 04:22:47;;;;;;;27.83;17.03;;;3.50;1.00;;;;;;5016202;28;20199;-78
2022/11/18 04:25:13;;;;;;;26.23;17.20;;;3.40;1.00;;;;;;5024188;28;20184;-78
2022/11/18 04:27:39;;;;;;;24.13;17.03;;;3.50;1.00;;;;;;5015478;28;20712;-78
2022/11/18 04:30:06;;;;;;;25.83;16.73;;;3.50;1.00;;;;;;5019845;28;20203;-77
2022/11/18 04:32:32;;;;;;;28.03;17.17;;;3.50;1.00;;;;;;5017456;28;20182;-78
2022/11/18 04:34:58;;;;;;;25.20;16.40;;;3.50;1.00;;;;;;5016644;28;20176;-78
2022/11/18 04:37:24;;;;;;;23.90;16.63;;;3.40;1.00;;;;;;5024589;28;20248;-78
2022/11/18 04:39:50;;;;;;;24.50;16.63;;;3.40;1.00;;;;;;5016013;28;20180;-77
2022/11/18 04:42:16;;;;;;;24.80;16.80;;;3.40;1.00;;;;;;5017113;28;20262;-78
2022/11/18 04:44:42;;;;;;;24.47;17.20;;;3.40;1.00;;;;;;5016982;28;20271;-78
2022/11/18 04:47:07;;;;;;;23.90;16.57;;;3.30;1.00;;;;;;5017441;28;20207;-78
2022/11/18 04:49:34;;;;;;;26.93;17.00;;;3.20;1.00;;;;;;5016595;28;20214;-77
2022/11/18 04:52:00;;;;;;;28.13;18.03;;;3.20;1.00;;;;;;5016809;28;20277;-78
2022/11/18 04:54:27;;;;;;;28.67;18.17;;;3.20;1.00;;;;;;5014352;28;20175;-78
2022/11/18 04:56:53;;;;;;;23.83;16.57;;;3.20;1.00;;;;;;5016202;28;20207;-78
2022/11/18 04:59:22;;;;;;;25.10;17.07;;;3.30;1.00;;;;;;5020342;28;20270;-78
2022/11/18 05:01:49;;;;;;;25.30;16.93;;;3.30;1.00;;;;;;5014921;28;20272;-77
2022/11/18 05:04:17;;;;;;;24.60;16.63;;;3.20;1.00;;;;;;5014675;28;20184;-78
2022/11/18 05:06:43;;;;;;;26.17;16.73;;;3.30;1.00;;;;;;5017103;28;20228;-78
2022/11/18 05:09:09;;;;;;;23.57;16.83;;;3.20;1.00;;;;;;5017716;28;20183;-77
2022/11/18 05:14:19;;;;;;;26.03;16.63;;;3.10;1.00;;;;;;5022752;28;20182;-77
2022/11/18 05:16:45;;;;;;;28.73;17.47;;;3.10;1.00;;;;;;5020723;28;20194;-78
2022/11/18 05:19:11;;;;;;;27.23;17.33;;;3.00;1.00;;;;;;5018752;28;20233;-78
2022/11/18 05:21:37;;;;;;;25.40;16.80;;;3.00;1.00;;;;;;5019581;28;20833;-78
2022/11/18 05:24:03;;;;;;;22.10;15.17;;;3.00;1.00;;;;;;5020110;28;20187;-78
2022/11/18 05:26:29;;;;;;;24.60;16.40;;;3.10;1.00;;;;;;5017028;28;20203;-78
2022/11/18 05:28:55;;;;;;;26.20;16.37;;;2.90;1.00;;;;;;5020193;28;20523;-78
2022/11/18 05:31:21;;;;;;;24.63;16.40;;;3.00;1.00;;;;;;5021543;28;20199;-77
2022/11/18 05:33:47;;;;;;;26.73;16.63;;;2.90;1.00;;;;;;5019009;28;20276;-77
2022/11/18 05:36:15;;;;;;;24.80;17.20;;;2.90;1.00;;;;;;5017714;28;20196;-77
2022/11/18 05:38:42;;;;;;;23.20;15.53;;;3.00;1.00;;;;;;5021346;28;20654;-77
2022/11/18 05:41:08;;;;;;;26.90;16.57;;;2.90;1.00;;;;;;5019526;28;20179;-76
2022/11/18 05:43:35;;;;;;;26.43;15.53;;;2.90;1.00;;;;;;5019684;28;20234;-78
2022/11/18 05:46:01;;;;;;;24.40;15.87;;;2.90;1.00;;;;;;5022245;28;20238;-79
2022/11/18 05:48:27;;;;;;;25.70;15.37;;;2.90;1.00;;;;;;5021884;28;20193;-78
2022/11/18 05:50:54;;;;;;;27.50;16.23;;;2.90;1.00;;;;;;5017389;28;20208;-78
2022/11/18 05:53:22;;;;;;;23.73;15.27;;;2.80;1.00;;;;;;5018427;28;20198;-78
2022/11/18 05:56:04;;;;;;;24.97;16.87;;;2.70;1.00;;;;;;5018963;28;20203;-78
2022/11/18 05:58:30;;;;;;;26.10;15.67;;;2.80;1.00;;;;;;5018719;28;20620;-78
2022/11/18 06:01:00;;;;;;;24.27;15.63;;;2.90;1.00;;;;;;5018692;28;20197;-78
2022/11/18 06:03:29;;;;;;;24.17;15.83;;;2.90;1.00;;;;;;5020123;28;20203;-78
2022/11/18 06:05:58;;;;;;;24.93;16.10;;;2.80;99.90;;;;;;5018716;28;20207;-78
2022/11/18 06:08:27;;;;;;;24.00;16.20;;;2.70;1.00;;;;;;5019345;28;20564;-78
2022/11/18 06:10:53;;;;;;;23.43;15.80;;;2.80;1.00;;;;;;5017883;28;20207;-79
2022/11/18 06:13:27;;;;;;;25.47;16.33;;;2.80;1.00;;;;;;5015885;28;20206;-78
2022/11/18 06:15:53;;;;;;;28.07;16.70;;;2.80;99.90;;;;;;5015822;28;20208;-78
2022/11/18 06:18:26;;;;;;;23.60;15.20;;;2.70;99.90;;;;;;5016952;28;20712;-78
2022/11/18 06:20:59;;;;;;;27.13;16.33;;;2.90;1.00;;;;;;5016527;28;20683;-79
2022/11/18 06:23:29;;;;;;;24.23;15.27;;;2.80;99.90;;;;;;5020168;28;20194;-78
2022/11/18 06:25:55;;;;;;;23.07;15.33;;;2.80;99.90;;;;;;5023639;28;20207;-79
2022/11/18 06:28:22;;;;;;;22.37;15.10;;;2.90;99.90;;;;;;5018919;28;20186;-79
2022/11/18 06:30:47;;;;;;;23.10;15.67;;;2.80;99.90;;;;;;5016676;28;20215;-79
2022/11/18 06:33:13;;;;;;;25.20;15.10;;;2.90;99.90;;;;;;5020203;28;20180;-79
2022/11/18 06:35:40;;;;;;;23.17;14.60;;;2.70;99.90;;;;;;5019155;28;20237;-77
2022/11/18 06:38:06;;;;;;;23.57;14.93;;;2.50;99.90;;;;;;5014739;28;20180;-80
2022/11/18 06:40:31;;;;;;;25.43;16.00;;;2.50;99.90;;;;;;5017857;28;20190;-80
2022/11/18 06:46:54;;;;;;;23.03;14.13;;;2.60;99.90;;;;;;5014645;28;20672;-79
2022/11/18 06:48:27;;;;;;;21.37;14.57;;;2.60;99.90;;;;;;5020438;28;20182;-77
2022/11/18 06:50:53;;;;;;;24.43;15.33;;;2.60;99.90;;;;;;5019413;28;20278;-79
2022/11/18 06:53:18;;;;;;;23.17;14.90;;;2.60;99.90;;;;;;5021595;28;20206;-77
2022/11/18 06:55:44;;;;;;;24.13;15.10;;;2.50;99.90;;;;;;5018990;28;20177;-79
2022/11/18 06:58:09;;;;;;;22.20;14.60;;;2.50;99.90;;;;;;5018009;28;20194;-79
2022/11/18 07:00:35;;;;;;;23.07;15.87;;;2.50;99.90;;;;;;5021439;28;20187;-79
2022/11/18 07:03:01;;;;;;;24.37;14.70;;;2.70;99.90;;;;;;5017614;28;20580;-78
2022/11/18 07:05:27;;;;;;;22.73;14.53;;;2.60;99.90;;;;;;5020683;28;20846;-79
2022/11/18 07:07:52;;;;;;;20.83;13.57;;;2.70;61.20;;;;;;5024971;28;20187;-79
2022/11/18 07:10:18;;;;;;;21.83;14.03;;;2.40;99.90;;;;;;5022926;28;20682;-79
2022/11/18 07:12:43;;;;;;;22.90;14.30;;;2.30;95.00;;;;;;5022647;28;20191;-79
2022/11/18 07:15:09;;;;;;;21.60;14.40;;;2.20;42.60;;;;;;5020259;28;21068;-79
2022/11/18 07:17:35;;;;;;;21.60;14.67;;;2.20;99.90;;;;;;5026196;28;20269;-79
2022/11/18 07:20:00;;;;;;;22.40;15.10;;;2.20;99.90;;;;;;5021785;28;20203;-78
2022/11/18 07:22:26;;;;;;;23.73;15.33;;;2.20;99.90;;;;;;5022386;28;20619;-79
2022/11/18 07:24:52;;;;;;;22.30;14.70;;;2.30;99.90;;;;;;5021281;28;20272;-79
2022/11/18 07:27:17;;;;;;;21.60;13.73;;;2.20;99.90;;;;;;5019178;28;20218;-79
2022/11/18 07:29:43;;;;;;;29.50;20.17;;;2.20;99.90;;;;;;5020877;28;20236;-79
2022/11/18 07:32:08;;;;;;;24.17;16.57;;;2.10;99.90;;;;;;5022809;28;20285;-78
2022/11/18 07:34:34;;;;;;;24.30;15.63;;;2.20;99.90;;;;;;5021926;28;20183;-78
2022/11/18 07:36:59;;;;;;;25.47;16.17;;;2.20;99.90;;;;;;5021270;28;20234;-79
2022/11/18 07:39:25;;;;;;;22.70;15.13;;;2.20;99.90;;;;;;5022229;28;20186;-78
2022/11/18 07:41:51;;;;;;;22.47;14.53;;;2.10;1.00;;;;;;5021470;28;20183;-79
2022/11/18 07:44:16;;;;;;;24.57;15.37;;;2.10;11.70;;;;;;5016613;28;20653;-78
2022/11/18 07:46:42;;;;;;;24.20;15.40;;;2.10;36.90;;;;;;5021633;28;20288;-79
2022/11/18 07:49:08;;;;;;;23.60;14.53;;;3.30;49.60;;;;;;5012351;28;20230;-79
2022/11/18 07:51:36;;;;;;;23.77;14.83;;;2.30;1.00;;;;;;5021788;28;20179;-78
2022/11/18 07:54:13;;;;;;;24.97;15.73;;;2.30;1.00;;;;;;5018859;28;20263;-78
2022/11/18 07:56:38;;;;;;;23.63;15.07;;;2.30;1.00;;;;;;5019704;28;20876;-78
2022/11/18 07:59:04;;;;;;;23.40;15.93;;;2.40;1.00;;;;;;5022674;28;20190;-78
2022/11/18 08:01:30;;;;;;;23.70;15.27;;;2.30;1.00;;;;;;5020049;28;20187;-78
2022/11/18 08:04:02;;;;;;;25.47;15.87;;;2.20;1.00;;;;;;5021270;28;20187;-78
2022/11/18 08:06:28;;;;;;;23.67;15.63;;;2.20;1.00;;;;;;5022355;28;20234;-77
2022/11/18 08:08:53;;;;;;;21.70;15.03;;;2.20;1.00;;;;;;5023957;28;20191;-78
2022/11/18 08:11:19;;;;;;;24.17;16.13;;;2.10;1.00;;;;;;5020645;28;20203;-79
2022/11/18 08:13:45;;;;;;;25.77;17.03;;;2.00;1.00;;;;;;5022647;28;20175;-78
2022/11/18 08:16:16;;;;;;;25.57;16.70;;;1.90;1.00;;;;;;5021492;28;20202;-78
2022/11/18 08:18:42;;;;;;;26.13;16.90;;;1.90;1.00;;;;;;5022201;28;20180;-78
2022/11/18 08:21:08;;;;;;;27.20;17.60;;;1.90;1.00;;;;;;5021098;28;20189;-78
2022/11/18 08:23:33;;;;;;;27.67;18.07;;;2.10;1.00;;;;;;5020087;28;20175;-77
2022/11/18 08:26:05;;;;;;;27.13;17.67;;;2.10;1.00;;;;;;5023385;28;20219;-78
2022/11/18 08:28:31;;;;;;;30.77;17.83;;;2.00;1.00;;;;;;5035986;28;20236;-78
2022/11/18 08:30:57;;;;;;;28.67;18.73;;;2.00;1.00;;;;;;5021038;28;20221;-79
2022/11/18 08:33:22;;;;;;;27.20;16.77;;;1.90;1.00;;;;;;5020453;28;20215;-78
2022/11/18 08:35:48;;;;;;;26.00;16.73;;;1.80;1.00;;;;;;5020553;28;20639;-78
2022/11/18 08:38:13;;;;;;;26.90;16.80;;;1.80;1.00;;;;;;5020621;28;20187;-78
2022/11/18 08:40:43;;;;;;;24.03;16.80;;;1.90;1.00;;;;;;5019240;28;20649;-78
2022/11/18 08:43:12;;;;;;;25.57;17.07;;;1.90;1.00;;;;;;5019130;28;20184;-78
2022/11/18 08:45:39;;;;;;;23.67;16.20;;;2.00;1.00;;;;;;5014684;28;20527;-79
2022/11/18 08:48:05;;;;;;;24.43;15.80;;;2.10;1.00;;;;;;5019148;28;20194;-79
2022/11/18 08:50:30;;;;;;;23.93;15.90;;;2.10;99.90;;;;;;5017325;28;21057;-78
2022/11/18 08:52:56;;;;;;;22.53;16.20;;;2.10;99.90;;;;;;5013311;28;20195;-78
2022/11/18 08:55:22;;;;;;;19.97;14.80;;;1.90;99.90;;;;;;5019706;28;20270;-78
2022/11/18 08:57:48;;;;;;;21.30;15.13;;;1.80;99.90;;;;;;5019952;28;20199;-78
2022/11/18 09:00:14;;;;;;;22.57;15.37;;;1.80;99.90;;;;;;5020523;28;20182;-79
2022/11/18 09:02:40;;;;;;;22.37;15.37;;;1.80;99.90;;;;;;5015401;28;20279;-79
2022/11/18 09:05:06;;;;;;;22.93;15.33;;;1.70;99.90;;;;;;5018352;28;20274;-77
2022/11/18 09:07:31;;;;;;;20.60;15.03;;;1.60;99.90;;;;;;5015030;28;20219;-78
2022/11/18 09:09:57;;;;;;;21.03;14.60;;;1.80;99.90;;;;;;5018713;28;20754;-78
2022/11/18 09:12:22;;;;;;;20.57;14.70;;;1.90;99.90;;;;;;5019357;28;20272;-78
2022/11/18 09:14:48;;;;;;;21.17;14.87;;;1.90;99.90;;;;;;5019113;28;20182;-78
2022/11/18 09:17:14;;;;;;;21.07;14.73;;;1.90;99.90;;;;;;5019444;28;20282;-78
2022/11/18 09:19:39;;;;;;;22.33;14.10;;;1.90;99.90;;;;;;5019496;28;20175;-78
2022/11/18 09:22:06;;;;;;;19.60;13.03;;;1.90;99.90;;;;;;5017400;28;20278;-79
2022/11/18 09:24:33;;;;;;;20.00;13.80;;;1.90;99.90;;;;;;5017607;28;20720;-79
2022/11/18 09:27:01;;;;;;;20.43;14.13;;;2.10;99.90;;;;;;5019039;28;20207;-79
2022/11/18 09:29:26;;;;;;;20.97;14.07;;;2.10;99.90;;;;;;5017698;28;20275;-78
2022/11/18 09:31:53;;;;;;;19.80;13.90;;;2.20;99.90;;;;;;5019358;28;20192;-79
2022/11/18 09:34:18;;;;;;;19.20;14.07;;;2.20;99.90;;;;;;5022304;28;20168;-79
2022/11/18 09:36:44;;;;;;;20.70;14.67;;;2.20;99.90;;;;;;5019711;28;20596;-79
2022/11/18 09:39:10;;;;;;;20.20;14.07;;;2.20;99.90;;;;;;5020909;28;20525;-79
2022/11/18 09:41:47;;;;;;;17.97;13.57;;;2.30;99.90;;;;;;5019815;28;20622;-78
2022/11/18 09:44:37;;;;;;;18.27;13.83;;;2.10;99.90;;;;;;5019861;28;20254;-79
2022/11/18 09:47:11;;;;;;;20.20;14.13;;;2.10;99.90;;;;;;5020339;28;20199;-78
2022/11/18 09:49:40;;;;;;;19.27;13.77;;;2.00;99.90;;;;;;5019749;28;20203;-78
2022/11/18 09:52:28;;;;;;;20.93;14.00;;;2.10;99.90;;;;;;5019397;28;20195;-78
2022/11/18 09:54:54;;;;;;;17.30;12.70;;;2.10;99.90;;;;;;5020613;28;20178;-78
2022/11/18 09:57:24;;;;;;;20.87;14.77;;;2.20;99.90;;;;;;5020679;28;20211;-78
2022/11/18 09:59:50;;;;;;;19.07;14.27;;;2.20;99.90;;;;;;5022066;28;20555;-78
2022/11/18 10:02:45;;;;;;;20.37;15.33;;;1.80;99.90;;;;;;5020909;28;20198;-78
2022/11/18 10:05:23;;;;;;;19.23;14.87;;;1.90;99.90;;;;;;5020759;28;20179;-78
2022/11/18 10:07:55;;;;;;;21.77;15.43;;;2.10;99.90;;;;;;5021008;28;20206;-78
2022/11/18 10:10:44;;;;;;;20.30;15.07;;;2.30;99.90;;;;;;5021410;28;20237;-78
2022/11/18 10:14:00;;;;;;;20.07;14.57;;;2.20;99.90;;;;;;5021032;28;20188;-78
2022/11/18 10:16:44;;;;;;;19.57;13.50;;;2.00;99.90;;;;;;5003621;28;20559;-78
2022/11/18 10:19:25;;;;;;;20.33;13.33;;;2.20;99.90;;;;;;5020530;28;20214;-79
2022/11/18 10:22:05;;;;;;;25.73;12.57;;;2.20;99.90;;;;;;5017912;28;20175;-79
2022/11/18 10:24:37;;;;;;;29.40;13.07;;;2.20;99.90;;;;;;5019183;28;20549;-78
2022/11/18 10:27:12;;;;;;;25.43;11.47;;;2.10;99.90;;;;;;5019552;28;20208;-78
2022/11/18 10:29:38;;;;;;;36.90;12.53;;;2.10;99.90;;;;;;5018624;28;20290;-79
2022/11/18 10:32:06;;;;;;;28.93;11.10;;;1.90;99.90;;;;;;5020513;28;20230;-79
2022/11/18 10:34:34;;;;;;;29.80;11.63;;;1.90;99.90;;;;;;5020008;28;20520;-78
2022/11/18 10:37:11;;;;;;;22.27;12.53;;;1.80;99.90;;;;;;5019799;28;20207;-78
2022/11/18 10:39:50;;;;;;;25.73;11.90;;;1.80;99.90;;;;;;5018912;28;20175;-78
2022/11/18 10:42:23;;;;;;;27.50;12.30;;;2.00;99.90;;;;;;5020842;28;20175;-79
2022/11/18 10:44:49;;;;;;;30.03;11.50;;;2.00;99.90;;;;;;5022497;28;20184;-78
2022/11/18 10:47:30;;;;;;;25.60;12.23;;;2.00;99.90;;;;;;5019952;28;20329;-78
2022/11/18 10:50:01;;;;;;;25.80;12.60;;;2.10;99.90;;;;;;5022515;28;20211;-78
2022/11/18 10:52:28;;;;;;;19.57;12.17;;;2.10;99.90;;;;;;5020761;28;20563;-78
2022/11/18 10:55:11;;;;;;;25.57;13.20;;;2.10;99.90;;;;;;5021875;28;20204;-78
2022/11/18 10:57:42;;;;;;;26.70;13.70;;;2.00;99.90;;;;;;5021413;28;20669;-78
2022/11/18 11:00:34;;;;;;;24.00;13.07;;;1.90;99.90;;;;;;5022448;28;20638;-78
2022/11/18 11:03:00;;;;;;;33.17;12.83;;;1.90;99.90;;;;;;5021814;28;20183;-77
2022/11/18 11:05:26;;;;;;;20.80;12.23;;;1.90;99.90;;;;;;5020013;28;20187;-78
2022/11/18 11:08:18;;;;;;;40.57;14.33;;;2.00;99.90;;;;;;5020147;28;20230;-78
2022/11/18 11:10:57;;;;;;;30.77;13.80;;;1.80;99.90;;;;;;5022219;28;20211;-78
2022/11/18 11:13:28;;;;;;;22.00;14.27;;;1.90;99.90;;;;;;5021188;28;20180;-79
2022/11/18 11:15:56;;;;;;;17.80;13.07;;;1.90;99.90;;;;;;5022323;28;20259;-79
2022/11/18 11:18:40;;;;;;;17.73;12.57;;;2.00;99.90;;;;;;5022332;28;20227;-78
2022/11/18 11:21:17;;;;;;;19.93;14.00;;;1.90;99.90;;;;;;5021268;28;20211;-78
2022/11/18 11:23:43;;;;;;;22.63;14.47;;;1.80;99.90;;;;;;5023043;28;20525;-78
2022/11/18 11:26:29;;;;;;;19.20;13.87;;;1.80;99.90;;;;;;5022713;28;20210;-79
2022/11/18 11:29:14;;;;;;;18.50;13.57;;;1.80;99.90;;;;;;5021975;28;20195;-78
2022/11/18 11:31:53;;;;;;;18.20;13.63;;;1.90;99.90;;;;;;5022378;28;20193;-79
2022/11/18 11:34:29;;;;;;;17.43;13.47;;;1.90;99.90;;;;;;5021408;28;20183;-78
2022/11/18 11:37:06;;;;;;;17.73;13.43;;;2.00;94.50;;;;;;5022128;28;20294;-78
2022/11/18 11:40:01;;;;;;;18.67;14.07;;;2.00;97.20;;;;;;5018936;28;20232;-78
2022/11/18 11:42:52;;;;;;;19.13;14.67;;;2.00;97.00;;;;;;5017855;28;20172;-78
2022/11/18 11:45:29;;;;;;;19.03;14.90;;;2.00;96.30;;;;;;4999442;28;20192;-78
2022/11/18 11:48:09;;;;;;;19.60;14.33;;;2.10;99.90;;;;;;5020921;28;20171;-78
2022/11/18 11:50:53;;;;;;;19.27;14.73;;;2.10;90.00;;;;;;5019379;28;20211;-78
2022/11/18 11:53:44;;;;;;;20.60;15.20;;;1.90;86.80;;;;;;5020605;28;20199;-78
2022/11/18 11:56:38;;;;;;;20.53;15.23;;;1.80;96.90;;;;;;5003086;28;20230;-79
2022/11/18 11:59:21;;;;;;;20.50;15.00;;;1.70;99.90;;;;;;5019071;28;20178;-79
2022/11/18 12:01:56;;;;;;;18.93;14.43;;;1.60;97.20;;;;;;5019777;28;20629;-78
2022/11/18 12:04:30;;;;;;;17.00;12.37;;;1.50;95.80;;;;;;5019643;28;20176;-78
2022/11/18 12:06:58;;;;;;;18.27;13.43;;;1.60;99.90;;;;;;5019039;28;20368;-78
2022/11/18 12:09:32;;;;;;;16.17;12.67;;;1.60;99.90;;;;;;5019246;28;20212;-78
2022/11/18 12:12:33;;;;;;;17.33;12.63;;;1.60;99.90;;;;;;5019501;28;20180;-78
2022/11/18 12:15:36;;;;;;;17.00;12.30;;;1.40;83.30;;;;;;5020063;28;20176;-78
2022/11/18 12:18:08;;;;;;;16.80;12.67;;;1.30;92.50;;;;;;5019542;28;20183;-78
2022/11/18 12:20:42;;;;;;;18.10;12.90;;;1.40;98.20;;;;;;5020134;28;20274;-78
2022/11/18 12:23:13;;;;;;;17.60;12.60;;;1.30;98.30;;;;;;5018135;28;20180;-78
2022/11/18 12:25:51;;;;;;;17.53;12.13;;;1.30;99.90;;;;;;5017845;28;20263;-78
2022/11/18 12:28:25;;;;;;;16.60;12.37;;;1.30;97.50;;;;;;5019526;28;20240;-78
2022/11/18 12:31:16;;;;;;;18.37;13.73;;;1.40;96.10;;;;;;5019560;28;20207;-78
2022/11/18 12:33:47;;;;;;;16.00;12.40;;;1.60;89.50;;;;;;5017855;28;20184;-78
2022/11/18 12:36:27;;;;;;;17.73;13.40;;;1.60;83.20;;;;;;5019816;28;20195;-78
2022/11/18 12:38:54;;;;;;;17.50;13.33;;;1.50;74.20;;;;;;5019792;28;20302;-78
2022/11/18 12:44:27;;;;;;;17.47;13.20;;;1.60;84.30;;;;;;5011945;28;20201;-78
2022/11/18 12:46:58;;;;;;;18.93;13.50;;;1.50;89.50;;;;;;5017540;28;20261;-78
2022/11/18 12:49:23;;;;;;;19.53;14.53;;;1.60;90.70;;;;;;5000329;28;20260;-78
2022/11/18 12:51:59;;;;;;;19.07;14.57;;;1.50;79.60;;;;;;5000073;28;20184;-78
2022/11/18 12:54:35;;;;;;;18.53;14.10;;;1.30;77.10;;;;;;4998854;28;20172;-78
2022/11/18 12:57:18;;;;;;;18.80;13.90;;;1.20;92.20;;;;;;5000079;28;20212;-78
2022/11/18 12:59:43;;;;;;;17.87;13.47;;;1.30;99.10;;;;;;5004311;28;20183;-78
2022/11/18 13:02:20;;;;;;;18.80;14.47;;;1.30;90.70;;;;;;5016854;28;20188;-79
2022/11/18 13:05:12;;;;;;;21.13;16.67;;;1.30;90.40;;;;;;5017136;28;20217;-78
2022/11/18 13:10:33;;;;;;;22.90;17.03;;;1.30;87.10;;;;;;5019522;28;20226;-78
2022/11/18 13:13:01;;;;;;;23.83;17.60;;;1.20;73.90;;;;;;5017780;28;20247;-78
2022/11/18 13:18:19;;;;;;;24.47;17.53;;;1.10;56.00;;;;;;5018973;28;20177;-77